Time;durP1;ratioP1;P1;durP2;ratioP2;P2;SDS_P1;SDS_P2;PMS_P1;PMS_P2;Temp;Humidity;BMP_temperature;BMP_pressure;BME280_temperature;BME280_humidity;BME280_pressure;Samples;Min_cycle;Max_cycle;Signal;HPM_P1;HPM_P2
2021/05/10 04:55:20;;;;;;;1999.90;999.90;;;14.20;99.90;;;;;;5768412;23;20256;-92
2021/05/10 05:01:11;;;;;;;1999.90;999.90;;;14.30;99.90;;;;;;4882119;29;20198;-92
2021/05/10 05:04:11;;;;;;;1999.90;999.90;;;14.30;99.90;;;;;;4932922;29;20566;-93
2021/05/10 05:07:42;;;;;;;;;;;;;;;;;;;;;
2021/05/10 05:13:40;;;;;;;1999.90;999.90;;;14.40;99.90;;;;;;4896775;29;20225;-91
2021/05/10 05:16:57;;;;;;;1999.90;999.90;;;14.40;99.90;;;;;;4923249;29;20181;-92
2021/05/10 06:19:08;;;;;;;1999.90;999.90;;;14.40;99.90;;;;;;4936958;29;20221;-91
2021/05/10 06:21:43;;;;;;;1999.90;999.90;;;14.30;99.90;;;;;;4922178;29;20190;-92
2021/05/10 06:24:14;;;;;;;1999.90;999.90;;;14.30;99.90;;;;;;4929079;29;20185;-93
2021/05/10 06:26:43;;;;;;;1999.90;999.90;;;14.30;99.90;;;;;;4925698;29;20192;-92
2021/05/10 06:29:09;;;;;;;1999.90;999.90;;;14.40;99.90;;;;;;4937937;29;20205;-93
2021/05/10 06:31:41;;;;;;;1999.90;999.90;;;14.50;99.90;;;;;;4922715;29;20557;-94
2021/05/10 06:34:09;;;;;;;1999.90;999.90;;;14.60;99.90;;;;;;4922045;29;20205;-94
2021/05/10 06:36:35;;;;;;;1999.90;999.90;;;14.80;99.90;;;;;;4921904;29;20649;-94
2021/05/10 06:39:09;;;;;;;1999.90;999.90;;;14.90;99.90;;;;;;4921475;29;20189;-92
2021/05/10 06:41:40;;;;;;;1999.90;999.90;;;15.00;99.90;;;;;;4939410;29;20578;-93
2021/05/10 06:44:16;;;;;;;1999.90;999.90;;;15.20;99.90;;;;;;4922582;29;20192;-93
2021/05/10 06:47:16;;;;;;;;;;;;;;;;;;;;;
2021/05/10 06:49:31;;;;;;;1999.90;999.90;;;15.40;99.90;;;;;;4933400;29;20296;-93
2021/05/10 06:52:01;;;;;;;1999.90;999.90;;;15.50;99.90;;;;;;4921648;29;20209;-93
2021/05/10 06:54:34;;;;;;;1999.90;999.90;;;15.50;99.90;;;;;;4921205;29;20371;-94
2021/05/10 06:57:13;;;;;;;;;;;;;;;;;;;;;
2021/05/10 14:47:46;;;;;;;1999.90;999.90;;;20.30;99.90;;;;;;5467353;23;20240;-92
2021/05/10 14:50:23;;;;;;;1999.90;999.90;;;20.20;99.90;;;;;;4921083;29;20186;-92
2021/05/10 14:53:40;;;;;;;;;;;;;;;;;;;;;
2021/05/10 16:27:13;;;;;;;1999.90;999.90;;;20.00;99.90;;;;;;4935496;29;20225;-89
2021/05/10 16:29:39;;;;;;;1999.90;999.90;;;20.00;99.90;;;;;;4934876;29;20185;-88
2021/05/10 16:32:06;;;;;;;1999.90;999.90;;;20.10;99.90;;;;;;4935249;29;20589;-89
2021/05/10 16:34:32;;;;;;;1999.90;999.90;;;20.20;99.90;;;;;;4934582;29;20320;-88
2021/05/10 16:36:58;;;;;;;1999.90;999.90;;;20.20;99.90;;;;;;4934854;29;20220;-87
2021/05/10 16:39:24;;;;;;;1999.90;999.90;;;20.30;99.90;;;;;;4935974;29;20192;-89
2021/05/10 16:41:49;;;;;;;1999.90;999.90;;;20.40;99.90;;;;;;4915528;29;20284;-89
2021/05/10 16:44:15;;;;;;;1999.90;999.90;;;20.40;99.90;;;;;;4917231;29;20182;-88
2021/05/10 16:46:47;;;;;;;1999.90;999.90;;;20.50;99.90;;;;;;4922022;29;20218;-88
2021/05/10 16:49:13;;;;;;;1999.90;999.90;;;20.50;99.90;;;;;;4919019;29;20257;-89
2021/05/10 16:51:38;;;;;;;1999.90;999.90;;;20.50;99.90;;;;;;4922032;29;20276;-89
2021/05/10 16:54:05;;;;;;;1999.90;999.90;;;20.40;99.90;;;;;;4921876;29;20228;-88
2021/05/10 16:56:42;;;;;;;1999.90;999.90;;;20.40;99.90;;;;;;4919756;29;20185;-89
2021/05/10 16:59:19;;;;;;;1999.90;999.90;;;20.20;99.90;;;;;;4903411;29;20197;-86
2021/05/10 17:01:45;;;;;;;1999.90;999.90;;;20.00;99.90;;;;;;4920427;29;20221;-88
2021/05/10 17:04:11;;;;;;;1999.90;999.90;;;20.00;99.90;;;;;;4903589;29;20266;-88
2021/05/10 17:06:36;;;;;;;1999.90;999.90;;;20.00;99.90;;;;;;4903700;29;20269;-89
2021/05/10 17:09:03;;;;;;;1999.90;999.90;;;20.00;99.90;;;;;;4903900;29;20174;-90
2021/05/10 17:11:28;;;;;;;1999.90;999.90;;;19.90;99.90;;;;;;4905307;29;20188;-89
2021/05/10 17:13:54;;;;;;;1999.90;999.90;;;19.80;99.90;;;;;;4904210;29;20213;-89
2021/05/10 17:16:21;;;;;;;1999.90;999.90;;;19.60;99.90;;;;;;4903598;29;20178;-89
2021/05/10 17:18:47;;;;;;;1999.90;999.90;;;19.50;99.90;;;;;;4902661;29;20178;-89
2021/05/10 17:21:13;;;;;;;1999.90;999.90;;;19.40;99.90;;;;;;4919005;29;20234;-89
2021/05/10 17:23:42;;;;;;;1999.90;999.90;;;19.40;99.90;;;;;;4920108;29;20269;-89
2021/05/10 17:26:10;;;;;;;1999.90;999.90;;;19.20;99.90;;;;;;4919567;29;20225;-88
2021/05/10 17:28:36;;;;;;;1999.90;999.90;;;19.10;99.90;;;;;;4902851;29;20637;-88
2021/05/10 17:31:02;;;;;;;1999.90;999.90;;;19.10;99.90;;;;;;4903238;29;20189;-89
2021/05/10 17:33:31;;;;;;;1999.90;999.90;;;19.00;99.90;;;;;;4903049;29;20267;-90
2021/05/10 17:35:59;;;;;;;1999.90;999.90;;;18.90;99.90;;;;;;4902763;29;20182;-88
2021/05/10 17:38:27;;;;;;;1999.90;999.90;;;18.90;99.90;;;;;;4903080;29;20181;-89
2021/05/10 17:40:52;;;;;;;1999.90;999.90;;;18.80;99.90;;;;;;4902851;29;20181;-90
2021/05/10 17:43:20;;;;;;;1999.90;999.90;;;18.80;99.90;;;;;;4902943;29;20269;-90
2021/05/10 17:45:46;;;;;;;1999.90;999.90;;;18.70;99.90;;;;;;4903137;29;20186;-89
2021/05/10 17:48:12;;;;;;;1999.90;999.90;;;18.70;99.90;;;;;;4902668;29;20244;-90
2021/05/10 17:50:47;;;;;;;1999.90;999.90;;;18.60;99.90;;;;;;4926489;29;20197;-89
2021/05/10 17:53:14;;;;;;;1999.90;999.90;;;18.60;99.90;;;;;;4921967;29;20221;-89
2021/05/10 17:55:40;;;;;;;1999.90;999.90;;;18.60;99.90;;;;;;4922122;29;20187;-91
2021/05/10 17:58:15;;;;;;;1999.90;999.90;;;18.50;99.90;;;;;;4923012;29;20643;-92
2021/05/10 18:00:45;;;;;;;1999.90;999.90;;;18.40;99.90;;;;;;4921909;29;20194;-91
2021/05/10 18:03:16;;;;;;;1999.90;999.90;;;18.40;99.90;;;;;;4922215;29;20297;-91
2021/05/10 18:05:42;;;;;;;1999.90;999.90;;;18.30;99.90;;;;;;4922124;29;20185;-91
2021/05/10 18:08:14;;;;;;;1999.90;999.90;;;18.30;99.90;;;;;;4921852;29;20192;-92
2021/05/10 18:14:11;;;;;;;1999.90;999.90;;;18.20;99.90;;;;;;4882746;29;20223;-93
2021/05/10 18:16:47;;;;;;;;;;;;;;;;;;;;;
2021/05/10 18:19:25;;;;;;;1999.90;999.90;;;18.10;99.90;;;;;;4939229;29;20266;-91
2021/05/10 18:21:58;;;;;;;1999.90;999.90;;;18.00;99.90;;;;;;4921782;29;20637;-91
2021/05/10 18:25:12;;;;;;;;;;;;;;;;;;;;;
2021/05/10 18:27:45;;;;;;;1999.90;999.90;;;17.90;99.90;;;;;;4938681;29;20538;-92
2021/05/10 18:30:14;;;;;;;1999.90;999.90;;;17.90;99.90;;;;;;4921581;29;20268;-91
2021/05/10 18:33:05;;;;;;;1999.90;999.90;;;17.80;99.90;;;;;;4921297;29;20189;-91
2021/05/10 18:35:35;;;;;;;1999.90;999.90;;;17.80;99.90;;;;;;4921175;29;20622;-89
2021/05/10 18:41:19;;;;;;;1999.90;999.90;;;17.60;99.90;;;;;;4933028;29;20181;-91
2021/05/10 18:44:00;;;;;;;1999.90;999.90;;;17.50;99.90;;;;;;4921636;29;20193;-92
2021/05/10 18:46:57;;;;;;;1999.90;999.90;;;17.40;99.90;;;;;;4921349;29;20181;-93
2021/05/10 18:49:49;;;;;;;1999.90;999.90;;;17.30;99.90;;;;;;4919538;29;20185;-91
2021/05/10 18:52:23;;;;;;;1999.90;999.90;;;17.20;99.90;;;;;;4901692;29;20277;-94
2021/05/10 18:54:58;;;;;;;1999.90;999.90;;;17.10;99.90;;;;;;4918063;29;20244;-92
2021/05/10 19:02:00;;;;;;;1999.90;999.90;;;16.90;99.90;;;;;;4886854;29;20288;-90
2021/05/10 19:04:16;;;;;;;1999.90;999.90;;;16.80;99.90;;;;;;4911866;29;20675;-92
2021/05/10 19:06:48;;;;;;;1999.90;999.90;;;16.70;99.90;;;;;;4921374;29;20205;-89
2021/05/10 19:09:15;;;;;;;1999.90;999.90;;;16.70;99.90;;;;;;4919969;29;20193;-87
2021/05/10 19:12:16;;;;;;;1999.90;999.90;;;16.60;99.90;;;;;;4936519;29;20248;-90
2021/05/10 19:14:49;;;;;;;1999.90;999.90;;;16.50;99.90;;;;;;4937068;29;20213;-88
2021/05/10 19:17:15;;;;;;;1999.90;999.90;;;16.50;99.90;;;;;;4937372;29;20197;-87
2021/05/10 19:19:41;;;;;;;1999.90;999.90;;;16.40;99.90;;;;;;4920191;29;20177;-88
2021/05/10 19:22:07;;;;;;;1999.90;999.90;;;16.30;99.90;;;;;;4936865;29;20177;-87
2021/05/10 19:24:34;;;;;;;1999.90;999.90;;;16.30;99.90;;;;;;4919752;29;20193;-88
2021/05/10 19:27:08;;;;;;;1999.90;999.90;;;16.20;99.90;;;;;;4919718;29;20296;-86
2021/05/10 19:29:43;;;;;;;1999.90;999.90;;;16.10;99.90;;;;;;4919811;29;20280;-86
2021/05/10 19:32:15;;;;;;;1999.90;999.90;;;16.00;99.90;;;;;;4935704;29;20189;-85
2021/05/10 19:34:43;;;;;;;1999.90;999.90;;;16.00;99.90;;;;;;4937176;29;20237;-85
2021/05/10 19:37:10;;;;;;;1999.90;999.90;;;15.90;99.90;;;;;;4936721;29;20512;-86
2021/05/10 19:39:35;;;;;;;1999.90;999.90;;;15.80;99.90;;;;;;4919339;29;20208;-85
2021/05/10 19:42:01;;;;;;;1999.90;999.90;;;15.80;99.90;;;;;;4937172;29;20173;-85
2021/05/10 19:44:30;;;;;;;1999.90;999.90;;;15.70;99.90;;;;;;4938064;29;20185;-85
2021/05/10 19:46:59;;;;;;;1999.90;999.90;;;15.70;99.90;;;;;;4919847;29;20315;-85
2021/05/10 19:49:41;;;;;;;1999.90;999.90;;;15.70;99.90;;;;;;4935134;29;20526;-85
2021/05/10 19:58:04;;;;;;;1999.90;999.90;;;15.70;99.90;;;;;;4936473;29;20192;-87
2021/05/10 20:05:28;;;;;;;1999.90;999.90;;;15.50;99.90;;;;;;4935868;29;20656;-88
2021/05/10 20:07:54;;;;;;;1999.90;999.90;;;15.30;99.90;;;;;;4919303;29;20189;-88
2021/05/10 20:10:20;;;;;;;1999.90;999.90;;;15.20;99.90;;;;;;4919378;29;20195;-88
2021/05/10 20:12:47;;;;;;;1999.90;999.90;;;15.20;99.90;;;;;;4936332;29;20245;-87
2021/05/10 20:15:21;;;;;;;1999.90;999.90;;;15.20;99.90;;;;;;4919198;29;20555;-88
2021/05/10 20:17:50;;;;;;;1999.90;999.90;;;15.10;99.90;;;;;;4918786;29;20186;-88
2021/05/10 20:20:15;;;;;;;1999.90;999.90;;;15.00;99.90;;;;;;4935802;29;20181;-88
2021/05/10 20:22:43;;;;;;;1999.90;999.90;;;15.00;99.90;;;;;;4921729;29;20237;-88
2021/05/10 20:25:10;;;;;;;1999.90;999.90;;;15.00;99.90;;;;;;4939961;29;20188;-88
2021/05/10 20:27:35;;;;;;;1999.90;999.90;;;15.00;99.90;;;;;;4923020;29;20208;-86
2021/05/10 20:30:01;;;;;;;1999.90;999.90;;;15.00;99.90;;;;;;4939641;29;20181;-87
2021/05/10 20:32:27;;;;;;;1999.90;999.90;;;14.90;99.90;;;;;;4940050;29;20554;-88
2021/05/10 20:34:55;;;;;;;1999.90;999.90;;;14.80;99.90;;;;;;4922334;29;20312;-88
2021/05/10 20:37:23;;;;;;;1999.90;999.90;;;14.80;99.90;;;;;;4939659;29;20590;-87
2021/05/10 20:39:51;;;;;;;1999.90;999.90;;;14.70;99.90;;;;;;4923351;29;20248;-88
2021/05/10 20:42:18;;;;;;;1999.90;999.90;;;14.60;99.90;;;;;;4922514;29;20224;-88
2021/05/10 20:44:43;;;;;;;1999.90;999.90;;;14.60;99.90;;;;;;4922340;29;20603;-87
2021/05/10 20:47:11;;;;;;;1999.90;999.90;;;14.50;99.90;;;;;;4922469;29;20177;-88
2021/05/10 20:49:40;;;;;;;1999.90;999.90;;;14.40;99.90;;;;;;4938321;29;20186;-88
2021/05/10 20:52:06;;;;;;;1999.90;999.90;;;14.40;99.90;;;;;;4922448;29;20244;-87
2021/05/10 20:54:49;;;;;;;1999.90;999.90;;;14.50;99.90;;;;;;4939665;29;20217;-88
2021/05/10 20:57:14;;;;;;;1999.90;999.90;;;14.50;99.90;;;;;;4939789;29;20197;-89
2021/05/10 20:59:40;;;;;;;1999.90;999.90;;;14.50;99.90;;;;;;4922215;29;20190;-88
2021/05/10 21:02:07;;;;;;;1999.90;999.90;;;14.40;99.90;;;;;;4939518;29;20272;-88
2021/05/10 21:04:34;;;;;;;1999.90;999.90;;;14.40;99.90;;;;;;4922745;29;20192;-89
2021/05/10 21:06:59;;;;;;;1999.90;999.90;;;14.30;99.90;;;;;;4939615;29;20185;-88
2021/05/10 21:09:27;;;;;;;1999.90;999.90;;;14.30;99.90;;;;;;4939619;29;20548;-88
2021/05/10 21:11:55;;;;;;;1999.90;999.90;;;14.20;99.90;;;;;;4922192;29;20189;-88
2021/05/10 21:14:22;;;;;;;1999.90;999.90;;;14.20;99.90;;;;;;4922038;29;20215;-88
2021/05/10 21:16:47;;;;;;;1999.90;999.90;;;14.10;99.90;;;;;;4921806;29;20191;-85
2021/05/10 21:19:13;;;;;;;1999.90;999.90;;;14.00;99.90;;;;;;4921858;29;20268;-86
2021/05/10 21:21:39;;;;;;;1999.90;999.90;;;14.00;99.90;;;;;;4922148;29;20189;-87
2021/05/10 21:24:05;;;;;;;1999.90;999.90;;;13.90;99.90;;;;;;4922099;29;20189;-88
2021/05/10 21:26:31;;;;;;;1999.90;999.90;;;13.90;99.90;;;;;;4922027;29;20194;-89
2021/05/10 21:28:57;;;;;;;1999.90;999.90;;;13.90;99.90;;;;;;4922118;29;20193;-88
2021/05/10 21:31:22;;;;;;;1999.90;999.90;;;13.90;99.90;;;;;;4921780;29;20521;-88
2021/05/10 21:33:48;;;;;;;1999.90;999.90;;;13.90;99.90;;;;;;4936968;29;20268;-88
2021/05/10 21:36:13;;;;;;;1999.90;999.90;;;13.90;99.90;;;;;;4921986;29;20638;-88
2021/05/10 21:38:39;;;;;;;1999.90;999.90;;;13.90;99.90;;;;;;4921816;29;20192;-87
2021/05/10 21:41:05;;;;;;;1999.90;999.90;;;13.80;99.90;;;;;;4921820;29;20181;-88
2021/05/10 21:43:30;;;;;;;1999.90;999.90;;;14.00;99.90;;;;;;4921577;29;20195;-88
2021/05/10 21:45:56;;;;;;;1999.90;999.90;;;14.00;99.90;;;;;;4921726;29;20211;-88
2021/05/10 21:48:28;;;;;;;1999.90;999.90;;;14.00;99.90;;;;;;4921497;29;20231;-87
2021/05/10 21:50:54;;;;;;;1999.90;999.90;;;13.90;99.90;;;;;;4938858;29;20276;-89
2021/05/10 21:53:20;;;;;;;1999.90;999.90;;;13.90;99.90;;;;;;4921771;29;20307;-88
2021/05/10 21:55:45;;;;;;;1999.90;999.90;;;13.90;99.90;;;;;;4937547;29;20637;-88
2021/05/10 21:58:11;;;;;;;1999.90;999.90;;;13.80;99.90;;;;;;4937125;29;20564;-88
2021/05/10 22:00:42;;;;;;;1999.90;999.90;;;13.70;99.90;;;;;;4921501;29;20185;-88
2021/05/10 22:03:11;;;;;;;1999.90;999.90;;;13.70;99.90;;;;;;4921398;29;20240;-88
2021/05/10 22:05:37;;;;;;;1999.90;999.90;;;13.70;99.90;;;;;;4921474;29;20173;-87
2021/05/10 22:08:04;;;;;;;1999.90;999.90;;;13.70;99.90;;;;;;4924917;29;20498;-87
2021/05/10 22:10:30;;;;;;;1999.90;999.90;;;13.70;99.90;;;;;;4940321;29;20182;-88
2021/05/10 22:12:55;;;;;;;1999.90;999.90;;;13.70;99.90;;;;;;4920838;29;20182;-88
2021/05/10 22:15:21;;;;;;;1999.90;999.90;;;13.80;99.90;;;;;;4920735;29;20193;-87
2021/05/10 22:17:48;;;;;;;1999.90;999.90;;;13.70;99.90;;;;;;4936982;29;20186;-88
2021/05/10 22:20:23;;;;;;;1999.90;999.90;;;13.60;99.90;;;;;;4938064;29;20185;-88
2021/05/10 22:22:52;;;;;;;1999.90;999.90;;;13.60;99.90;;;;;;4920773;29;20189;-89
2021/05/10 22:25:22;;;;;;;1999.90;999.90;;;13.50;99.90;;;;;;4937841;29;20177;-87
2021/05/10 22:30:17;;;;;;;1999.90;999.90;;;13.50;99.90;;;;;;4937752;29;20178;-88
2021/05/10 22:32:43;;;;;;;1999.90;999.90;;;13.40;99.90;;;;;;4936554;29;20668;-88
2021/05/10 22:35:11;;;;;;;1999.90;999.90;;;13.40;99.90;;;;;;4937591;29;20189;-88
2021/05/10 22:37:45;;;;;;;1999.90;999.90;;;13.40;99.90;;;;;;4937724;29;20525;-87
2021/05/10 22:40:16;;;;;;;1999.90;999.90;;;13.50;99.90;;;;;;4938032;29;20183;-88
2021/05/10 22:42:44;;;;;;;1999.90;999.90;;;13.50;99.90;;;;;;4936249;29;20188;-88
2021/05/10 23:07:13;;;;;;;1999.90;999.90;;;13.50;99.90;;;;;;4937393;29;20177;-88
2021/05/10 23:12:47;;;;;;;1999.90;999.90;;;13.50;99.90;;;;;;4938285;29;20592;-88
2021/05/10 23:17:38;;;;;;;1999.90;999.90;;;13.40;99.90;;;;;;4937057;29;20178;-88
2021/05/10 23:20:06;;;;;;;1999.90;999.90;;;13.30;99.90;;;;;;4919883;29;20196;-88
2021/05/10 23:22:31;;;;;;;1999.90;999.90;;;13.30;99.90;;;;;;4919639;29;20667;-88
2021/05/10 23:24:57;;;;;;;1999.90;999.90;;;13.40;99.90;;;;;;4936925;29;20181;-88
2021/05/10 23:27:23;;;;;;;1999.90;999.90;;;13.30;99.90;;;;;;4919793;29;20232;-87
2021/05/10 23:29:49;;;;;;;1999.90;999.90;;;13.40;99.90;;;;;;4935335;29;20181;-88
2021/05/10 23:32:14;;;;;;;1999.90;999.90;;;13.40;99.90;;;;;;4936856;29;20188;-88
2021/05/10 23:34:40;;;;;;;1999.90;999.90;;;13.30;99.90;;;;;;4935335;29;20684;-88
2021/05/10 23:37:06;;;;;;;1999.90;999.90;;;13.30;99.90;;;;;;4919606;29;20264;-88
2021/05/10 23:39:31;;;;;;;1999.90;999.90;;;13.20;99.90;;;;;;4919487;29;20684;-88
2021/05/10 23:41:57;;;;;;;1999.90;999.90;;;13.20;99.90;;;;;;4919631;29;20185;-88
2021/05/10 23:44:24;;;;;;;1999.90;999.90;;;13.30;99.90;;;;;;4936557;29;20177;-88
2021/05/10 23:46:50;;;;;;;1999.90;999.90;;;13.30;99.90;;;;;;4919201;29;20196;-88
2021/05/10 23:49:15;;;;;;;1999.90;999.90;;;13.20;99.90;;;;;;4919208;29;20181;-88
2021/05/10 23:51:41;;;;;;;1999.90;999.90;;;13.20;99.90;;;;;;4935115;29;20177;-88
2021/05/10 23:54:07;;;;;;;1999.90;999.90;;;13.20;99.90;;;;;;4936247;29;20212;-87
2021/05/10 23:56:32;;;;;;;1999.90;999.90;;;13.20;99.90;;;;;;4918998;29;20659;-87
2021/05/10 23:59:00;;;;;;;1999.90;999.90;;;13.20;99.90;;;;;;4934713;29;20233;-88
